Time;durP1;ratioP1;P1;durP2;ratioP2;P2;SDS_P1;SDS_P2;PMS_P1;PMS_P2;Temp;Humidity;BMP_temperature;BMP_pressure;BME280_temperature;BME280_humidity;BME280_pressure;Samples;Min_cycle;Max_cycle;Signal;HPM_P1;HPM_P2
2023/08/16 00:01:14;;;;;;;3.30;3.00;;;25.40;99.90;;;;;;6203589;28;89037;-71
2023/08/16 00:04:17;;;;;;;4.00;3.60;;;25.40;99.90;;;;;;6197330;28;88722;-71
2023/08/16 00:07:19;;;;;;;3.70;3.40;;;25.40;99.90;;;;;;6206826;28;89592;-70
2023/08/16 00:10:21;;;;;;;3.70;3.40;;;25.40;99.90;;;;;;6200635;28;90509;-71
2023/08/16 00:13:23;;;;;;;3.75;3.30;;;25.40;99.90;;;;;;6201368;28;90325;-71
2023/08/16 00:16:25;;;;;;;3.58;3.25;;;25.40;99.90;;;;;;6202429;28;88682;-70
2023/08/16 00:19:28;;;;;;;3.80;3.40;;;25.40;99.90;;;;;;6208234;28;90236;-71
2023/08/16 00:22:30;;;;;;;3.83;3.40;;;25.40;99.90;;;;;;6203851;28;89085;-71
2023/08/16 00:25:32;;;;;;;3.30;3.00;;;25.40;99.90;;;;;;6204486;28;89046;-71
2023/08/16 00:28:34;;;;;;;3.30;3.00;;;25.40;99.90;;;;;;6196968;28;91126;-71
2023/08/16 00:31:36;;;;;;;3.78;3.20;;;25.40;99.90;;;;;;6196155;28;89082;-71
2023/08/16 00:34:39;;;;;;;3.42;3.13;;;25.40;99.90;;;;;;6200356;28;88427;-72
2023/08/16 00:37:41;;;;;;;3.20;3.00;;;25.40;99.90;;;;;;6205494;28;88984;-71
2023/08/16 00:40:48;;;;;;;2.90;2.70;;;25.30;99.90;;;;;;6192229;28;88340;-71
2023/08/16 00:43:50;;;;;;;3.50;3.20;;;25.40;99.90;;;;;;6199589;28;89903;-71
2023/08/16 00:46:53;;;;;;;3.97;3.58;;;25.40;99.90;;;;;;6201574;28;89112;-71
2023/08/16 00:49:56;;;;;;;5.07;3.40;;;25.30;99.90;;;;;;6194596;28;89110;-71
2023/08/16 00:52:58;;;;;;;3.38;3.08;;;25.30;99.90;;;;;;6199122;28;89026;-71
2023/08/16 00:56:02;;;;;;;3.95;3.33;;;25.40;99.90;;;;;;6199453;28;89097;-71
2023/08/16 00:59:05;;;;;;;3.63;3.33;;;25.40;99.90;;;;;;6199963;28;89023;-72
2023/08/16 01:02:07;;;;;;;3.50;3.20;;;25.40;99.90;;;;;;6207990;28;88519;-71
2023/08/16 01:05:11;;;;;;;3.47;3.17;;;25.30;99.90;;;;;;6206056;28;88694;-71
2023/08/16 01:08:13;;;;;;;3.33;3.10;;;25.40;99.90;;;;;;6202573;28;89055;-70
2023/08/16 01:11:21;;;;;;;3.42;2.80;;;25.40;99.90;;;;;;6205261;28;89006;-70
2023/08/16 01:14:32;;;;;;;3.17;2.88;;;25.30;99.90;;;;;;6204829;28;90118;-70
2023/08/16 01:17:34;;;;;;;2.75;2.55;;;25.30;99.90;;;;;;6210021;28;89360;-72
2023/08/16 01:20:39;;;;;;;3.28;3.00;;;25.30;99.90;;;;;;6217311;28;88852;-72
2023/08/16 01:23:50;;;;;;;3.70;3.20;;;25.30;99.90;;;;;;6218419;28;89375;-71
2023/08/16 01:26:57;;;;;;;3.75;3.05;;;25.30;99.90;;;;;;6223005;28;89189;-71
2023/08/16 01:29:59;;;;;;;3.28;2.97;;;25.30;99.90;;;;;;6224886;28;89089;-71
2023/08/16 01:33:08;;;;;;;3.33;3.05;;;25.30;99.90;;;;;;6222853;28;89094;-71
2023/08/16 01:36:10;;;;;;;3.17;2.97;;;25.30;99.90;;;;;;6222760;28;89849;-70
2023/08/16 01:39:12;;;;;;;3.80;3.28;;;25.30;99.90;;;;;;6229940;28;89061;-71
2023/08/16 01:42:17;;;;;;;3.47;3.00;;;25.30;99.90;;;;;;6229449;28;90555;-71
2023/08/16 01:45:19;;;;;;;3.50;3.20;;;25.30;99.90;;;;;;6222933;28;90534;-71
2023/08/16 01:48:23;;;;;;;4.10;3.10;;;25.30;99.90;;;;;;6224924;28;89146;-71
2023/08/16 01:51:25;;;;;;;3.17;2.97;;;25.30;99.90;;;;;;6220747;28;89432;-71
2023/08/16 01:54:27;;;;;;;3.50;3.20;;;25.30;99.90;;;;;;6225935;28;88994;-71
2023/08/16 01:57:31;;;;;;;3.50;3.20;;;25.30;99.90;;;;;;6227016;28;88996;-71
2023/08/16 02:00:33;;;;;;;3.20;2.90;;;25.30;99.90;;;;;;6222165;28;89557;-71
2023/08/16 02:03:35;;;;;;;3.90;3.17;;;25.30;99.90;;;;;;6228246;28;89063;-71
2023/08/16 02:06:37;;;;;;;3.50;3.20;;;25.30;99.90;;;;;;6230338;28;88372;-71
2023/08/16 02:09:39;;;;;;;3.60;3.30;;;25.30;99.90;;;;;;6232010;27;89418;-71
2023/08/16 02:12:42;;;;;;;3.47;3.17;;;25.30;99.90;;;;;;6222931;28;89257;-72
2023/08/16 02:15:44;;;;;;;3.60;3.30;;;25.30;99.90;;;;;;6230675;28;89845;-71
2023/08/16 02:18:46;;;;;;;3.63;3.33;;;25.30;99.90;;;;;;6218082;28;89473;-71
2023/08/16 02:21:48;;;;;;;3.55;3.25;;;25.30;99.90;;;;;;6204857;28;89045;-71
2023/08/16 02:24:50;;;;;;;3.45;3.20;;;25.30;99.90;;;;;;6203427;28;89087;-72
2023/08/16 02:27:53;;;;;;;3.25;2.95;;;25.20;99.90;;;;;;6200529;28;89099;-72
2023/08/16 02:31:04;;;;;;;3.08;2.78;;;25.30;99.90;;;;;;6200018;28;89941;-72
2023/08/16 02:34:06;;;;;;;4.05;3.22;;;25.30;99.90;;;;;;6191139;28;88882;-73
2023/08/16 02:37:08;;;;;;;3.42;3.13;;;25.20;99.90;;;;;;6197140;28;88320;-72
2023/08/16 02:40:11;;;;;;;3.47;3.17;;;25.30;99.90;;;;;;6205590;28;89033;-71
2023/08/16 02:43:14;;;;;;;3.60;3.30;;;25.20;99.90;;;;;;6200590;28;88966;-72
2023/08/16 02:46:16;;;;;;;3.47;3.17;;;25.20;99.90;;;;;;6195063;28;89617;-72
2023/08/16 02:49:18;;;;;;;3.67;3.35;;;25.20;99.90;;;;;;6199472;28;89058;-71
2023/08/16 02:52:20;;;;;;;3.38;3.08;;;25.30;99.90;;;;;;6202382;28;89445;-71
2023/08/16 02:55:22;;;;;;;3.28;2.97;;;25.20;99.90;;;;;;6204613;28;89140;-71
2023/08/16 02:58:26;;;;;;;4.15;3.78;;;25.30;99.90;;;;;;6201867;28;88503;-72
2023/08/16 03:01:28;;;;;;;3.97;3.17;;;25.30;99.90;;;;;;6199082;28;89223;-71
2023/08/16 03:04:30;;;;;;;3.50;3.20;;;25.20;99.90;;;;;;6198993;28;89219;-72
2023/08/16 03:07:32;;;;;;;5.03;3.50;;;25.20;99.90;;;;;;6205754;28;88372;-72
2023/08/16 03:10:34;;;;;;;3.90;3.50;;;25.20;99.90;;;;;;6203379;28;89248;-72
2023/08/16 03:13:37;;;;;;;3.55;3.25;;;25.20;99.90;;;;;;6198411;28;89125;-72
2023/08/16 03:16:39;;;;;;;3.72;3.42;;;25.20;99.90;;;;;;6194835;28;89725;-71
2023/08/16 03:19:41;;;;;;;3.60;3.30;;;25.20;99.90;;;;;;6203397;28;88030;-71
2023/08/16 03:22:43;;;;;;;3.70;3.38;;;25.20;99.90;;;;;;6197025;28;89120;-70
2023/08/16 03:25:45;;;;;;;3.50;3.20;;;25.20;99.90;;;;;;6192592;28;89136;-70
2023/08/16 03:28:48;;;;;;;3.90;3.30;;;25.20;99.90;;;;;;6196488;28;89083;-70
2023/08/16 03:31:50;;;;;;;3.30;3.10;;;25.20;99.90;;;;;;6196581;28;89072;-70
2023/08/16 03:34:52;;;;;;;3.83;3.28;;;25.20;99.90;;;;;;6202032;28;89205;-70
2023/08/16 03:37:54;;;;;;;4.75;3.47;;;25.20;99.90;;;;;;6200547;28;88654;-70
2023/08/16 03:40:56;;;;;;;3.67;3.38;;;25.20;99.90;;;;;;6200908;28;89122;-70
2023/08/16 03:44:00;;;;;;;3.72;3.17;;;25.20;99.90;;;;;;6198375;28;89071;-71
2023/08/16 03:47:03;;;;;;;3.42;3.13;;;25.20;99.90;;;;;;6202539;28;90128;-71
2023/08/16 03:50:07;;;;;;;3.33;3.03;;;25.20;99.90;;;;;;6202159;28;91462;-71
2023/08/16 03:53:08;;;;;;;3.40;3.10;;;25.20;99.90;;;;;;6203846;28;88939;-71
2023/08/16 03:56:10;;;;;;;3.60;3.30;;;25.20;99.90;;;;;;6199026;28;89026;-71
2023/08/16 03:59:14;;;;;;;3.50;3.20;;;25.20;99.90;;;;;;6199596;28;89128;-71
2023/08/16 04:02:16;;;;;;;3.92;3.17;;;25.20;99.90;;;;;;6192553;28;89009;-69
2023/08/16 04:05:21;;;;;;;3.60;3.30;;;25.20;99.90;;;;;;6195825;28;89708;-71
2023/08/16 04:08:23;;;;;;;3.92;3.53;;;25.20;99.90;;;;;;6202529;28;89244;-71
2023/08/16 04:11:25;;;;;;;4.45;3.72;;;25.20;99.90;;;;;;6200369;28;89923;-70
2023/08/16 04:14:28;;;;;;;3.70;3.40;;;25.20;99.90;;;;;;6192992;28;87843;-69
2023/08/16 04:17:31;;;;;;;5.80;3.83;;;25.20;99.90;;;;;;6197136;28;89978;-68
2023/08/16 04:20:33;;;;;;;4.50;4.10;;;25.20;99.90;;;;;;6190571;28;89219;-69
2023/08/16 04:23:34;;;;;;;4.47;4.07;;;25.30;99.90;;;;;;6189959;28;89212;-69
2023/08/16 04:26:36;;;;;;;4.60;3.90;;;25.30;99.90;;;;;;6196996;28;89183;-68
2023/08/16 04:29:40;;;;;;;6.45;4.20;;;25.30;99.90;;;;;;6198340;28;89156;-69
2023/08/16 04:32:42;;;;;;;4.10;3.70;;;25.30;99.90;;;;;;6201576;28;89002;-71
2023/08/16 04:35:44;;;;;;;5.85;4.03;;;25.30;99.90;;;;;;6206348;28;89025;-71
2023/08/16 04:38:46;;;;;;;12.25;4.28;;;25.30;99.90;;;;;;6211487;28;88278;-72
2023/08/16 04:41:48;;;;;;;5.55;3.70;;;25.30;99.90;;;;;;6209460;28;89051;-72
2023/08/16 04:44:51;;;;;;;4.25;3.85;;;25.30;99.90;;;;;;6197451;28;89148;-72
2023/08/16 04:47:53;;;;;;;4.15;3.75;;;25.30;99.90;;;;;;6206695;28;89980;-72
2023/08/16 04:50:55;;;;;;;6.55;3.63;;;25.30;99.90;;;;;;6195806;28;89096;-72
2023/08/16 04:53:57;;;;;;;4.10;3.70;;;25.30;99.90;;;;;;6201670;28;89170;-70
2023/08/16 04:56:59;;;;;;;4.60;3.63;;;25.30;99.90;;;;;;6205276;28;88958;-71
2023/08/16 05:00:06;;;;;;;6.47;4.18;;;25.30;99.90;;;;;;6209894;28;89328;-70
2023/08/16 05:03:09;;;;;;;4.38;3.78;;;25.40;99.90;;;;;;6206500;28;89473;-73
2023/08/16 05:06:11;;;;;;;5.13;3.85;;;25.30;99.90;;;;;;6209843;28;89138;-71
2023/08/16 05:09:13;;;;;;;5.18;3.72;;;25.30;99.90;;;;;;6225892;28;88584;-70
2023/08/16 05:12:15;;;;;;;4.40;3.70;;;25.30;99.90;;;;;;6202274;28;89176;-70
2023/08/16 05:15:18;;;;;;;3.97;3.50;;;25.30;99.90;;;;;;6204805;28;89137;-71
2023/08/16 05:18:20;;;;;;;4.45;4.00;;;25.30;99.90;;;;;;6210566;28;89987;-72
2023/08/16 05:21:22;;;;;;;3.95;3.58;;;25.30;99.90;;;;;;6224032;28;88788;-72
2023/08/16 05:24:25;;;;;;;5.45;4.22;;;25.30;99.90;;;;;;6219546;28;89059;-72
2023/08/16 05:27:28;;;;;;;6.85;4.63;;;25.20;99.90;;;;;;6215232;28;88132;-71
2023/08/16 05:30:32;;;;;;;6.45;5.03;;;25.30;99.90;;;;;;6223709;28;89213;-71
2023/08/16 05:33:34;;;;;;;7.50;5.47;;;25.30;99.90;;;;;;6232540;28;89015;-72
2023/08/16 05:36:46;;;;;;;11.88;6.18;;;25.30;99.90;;;;;;6227761;28;88956;-71
2023/08/16 05:39:49;;;;;;;8.57;4.63;;;25.20;99.90;;;;;;6218054;28;88492;-71
2023/08/16 05:42:50;;;;;;;11.25;6.10;;;25.20;99.90;;;;;;6217471;28;89313;-71
2023/08/16 05:45:54;;;;;;;7.82;5.20;;;25.20;99.90;;;;;;6226613;28;89147;-72
2023/08/16 05:48:56;;;;;;;10.10;6.03;;;25.20;99.90;;;;;;6220902;28;90251;-72
2023/08/16 05:51:58;;;;;;;6.68;5.00;;;25.20;99.90;;;;;;6222491;28;89055;-72
2023/08/16 05:55:00;;;;;;;7.18;4.70;;;25.20;99.90;;;;;;6222270;28;89417;-71
2023/08/16 05:58:02;;;;;;;6.65;4.80;;;25.20;99.90;;;;;;6229463;28;89075;-71
2023/08/16 06:01:05;;;;;;;6.55;4.13;;;25.20;99.90;;;;;;6236266;28;89123;-72
2023/08/16 06:04:07;;;;;;;7.05;4.28;;;25.20;99.90;;;;;;6240844;28;89023;-71
2023/08/16 06:07:09;;;;;;;11.02;4.82;;;25.20;99.90;;;;;;6229985;28;89064;-72
2023/08/16 06:10:11;;;;;;;12.20;5.82;;;25.20;99.90;;;;;;6224501;28;88299;-69
2023/08/16 06:13:13;;;;;;;12.55;7.03;;;25.20;99.90;;;;;;6230535;28;89277;-68
2023/08/16 06:16:17;;;;;;;17.63;7.57;;;25.20;99.90;;;;;;6229715;28;89010;-68
2023/08/16 06:19:19;;;;;;;10.15;6.20;;;25.20;99.90;;;;;;6230695;28;89799;-69
2023/08/16 06:22:21;;;;;;;8.68;5.38;;;25.20;99.90;;;;;;6233134;28;89084;-70
2023/08/16 06:25:23;;;;;;;8.25;5.00;;;25.20;99.90;;;;;;6211883;28;88645;-69
2023/08/16 06:28:27;;;;;;;11.55;5.68;;;25.30;99.90;;;;;;6230014;28;88997;-70
2023/08/16 06:31:30;;;;;;;8.60;5.00;;;25.30;99.90;;;;;;6228594;28;89070;-69
2023/08/16 06:34:33;;;;;;;7.68;4.65;;;25.20;99.90;;;;;;6223865;28;89051;-70
2023/08/16 06:37:36;;;;;;;8.35;4.80;;;25.30;99.90;;;;;;6221956;28;89294;-69
2023/08/16 06:40:38;;;;;;;5.95;4.70;;;25.20;99.90;;;;;;6232631;28;88607;-69
2023/08/16 06:43:40;;;;;;;6.28;4.20;;;25.30;99.90;;;;;;6229157;28;88999;-69
2023/08/16 06:46:44;;;;;;;5.53;4.40;;;25.30;99.90;;;;;;6226575;28;89437;-70
2023/08/16 06:49:46;;;;;;;6.63;5.10;;;25.40;99.90;;;;;;6212972;28;89973;-69
2023/08/16 06:52:48;;;;;;;5.60;4.72;;;25.40;99.90;;;;;;6226586;28;89419;-69
2023/08/16 06:55:50;;;;;;;6.00;5.40;;;25.40;99.90;;;;;;6226732;28;90961;-69
2023/08/16 06:58:55;;;;;;;7.47;6.50;;;25.40;99.90;;;;;;6222452;28;89088;-69
2023/08/16 07:01:58;;;;;;;7.18;5.50;;;25.50;99.90;;;;;;6227991;28;88841;-69
2023/08/16 07:05:01;;;;;;;6.32;4.82;;;25.60;99.90;;;;;;6222093;28;89128;-69
2023/08/16 07:08:04;;;;;;;5.05;4.55;;;25.70;99.90;;;;;;6230942;28;89157;-69
2023/08/16 07:11:06;;;;;;;5.07;4.55;;;25.80;99.90;;;;;;6232074;28;87791;-69
2023/08/16 07:14:08;;;;;;;4.57;4.18;;;25.80;99.90;;;;;;6218023;28;88973;-68
2023/08/16 07:17:12;;;;;;;5.95;4.43;;;25.90;99.90;;;;;;6232062;28;89158;-68
2023/08/16 07:20:14;;;;;;;5.25;4.28;;;25.90;99.90;;;;;;6231191;28;90260;-69
2023/08/16 07:23:16;;;;;;;5.00;4.50;;;26.00;99.90;;;;;;6230151;28;89062;-68
2023/08/16 07:26:18;;;;;;;6.18;5.13;;;26.10;99.90;;;;;;6230487;28;87930;-69
2023/08/16 07:29:20;;;;;;;4.97;4.50;;;26.20;99.90;;;;;;6231225;28;89061;-68
2023/08/16 07:32:24;;;;;;;5.88;4.45;;;26.20;99.90;;;;;;6230017;28;89433;-68
2023/08/16 07:35:26;;;;;;;6.18;5.00;;;26.30;99.90;;;;;;6227400;28;88999;-69
2023/08/16 07:38:29;;;;;;;5.65;4.80;;;26.30;99.90;;;;;;6209800;28;89241;-69
2023/08/16 07:41:31;;;;;;;5.70;4.78;;;26.30;99.90;;;;;;6221384;28;88104;-69
2023/08/16 07:44:33;;;;;;;6.40;4.35;;;26.40;99.90;;;;;;6229009;28;88123;-69
2023/08/16 07:47:36;;;;;;;4.70;4.18;;;26.30;99.90;;;;;;6218543;28;89374;-69
2023/08/16 07:50:39;;;;;;;4.85;4.35;;;26.30;99.90;;;;;;6219334;28;89895;-69
2023/08/16 07:53:41;;;;;;;5.30;4.80;;;26.30;99.90;;;;;;6228641;28;87977;-69
2023/08/16 07:56:44;;;;;;;4.90;4.50;;;26.30;99.90;;;;;;6210745;28;89411;-69
2023/08/16 07:59:46;;;;;;;4.90;4.40;;;26.30;99.90;;;;;;6214251;28;88920;-69
2023/08/16 08:02:50;;;;;;;4.22;3.80;;;26.30;99.90;;;;;;6222443;28;89446;-69
2023/08/16 08:05:53;;;;;;;5.20;4.30;;;26.30;99.90;;;;;;6225822;28;89229;-69
2023/08/16 08:08:55;;;;;;;4.88;4.35;;;26.30;99.90;;;;;;6219272;28;89499;-69
2023/08/16 08:11:58;;;;;;;4.90;4.30;;;26.30;99.90;;;;;;6226985;28;88758;-69
2023/08/16 08:15:00;;;;;;;4.55;4.15;;;26.30;99.90;;;;;;6215703;28;89185;-69
2023/08/16 08:18:03;;;;;;;4.60;4.00;;;26.30;99.90;;;;;;6226397;28;89043;-69
2023/08/16 08:21:06;;;;;;;4.47;4.07;;;26.30;99.90;;;;;;6212862;28;90056;-70
2023/08/16 08:24:08;;;;;;;7.70;4.43;;;26.30;99.90;;;;;;6195266;28;89118;-70
2023/08/16 08:27:14;;;;;;;4.53;3.75;;;26.30;99.90;;;;;;6200163;28;88254;-69
2023/08/16 08:30:16;;;;;;;4.55;3.92;;;26.30;99.90;;;;;;6201867;28;88920;-68
2023/08/16 08:33:20;;;;;;;4.22;3.90;;;26.30;99.90;;;;;;6203097;28;87743;-70
2023/08/16 08:36:22;;;;;;;4.47;3.70;;;26.30;99.90;;;;;;6200943;28;89449;-69
2023/08/16 08:39:26;;;;;;;3.78;3.47;;;26.30;99.90;;;;;;6212465;28;89003;-70
2023/08/16 08:42:30;;;;;;;5.80;3.83;;;26.30;99.90;;;;;;6203216;28;87212;-69
2023/08/16 08:45:32;;;;;;;4.00;3.70;;;26.20;99.90;;;;;;6206656;28;89021;-69
2023/08/16 08:48:36;;;;;;;3.80;3.50;;;26.30;99.90;;;;;;6200238;28;88997;-70
2023/08/16 08:51:40;;;;;;;4.20;3.80;;;26.30;99.90;;;;;;6199050;28;90168;-69
2023/08/16 08:54:42;;;;;;;4.47;4.07;;;26.30;99.90;;;;;;6181085;28;89090;-70
2023/08/16 08:57:50;;;;;;;5.43;3.85;;;26.20;99.90;;;;;;6194514;28;89042;-69
2023/08/16 09:00:54;;;;;;;4.40;4.00;;;26.20;99.90;;;;;;6201453;28;89179;-69
2023/08/16 09:04:00;;;;;;;4.45;3.60;;;26.20;99.90;;;;;;6194844;28;89390;-69
2023/08/16 09:07:05;;;;;;;4.35;3.60;;;26.20;99.90;;;;;;6201589;28;89291;-69
2023/08/16 09:10:09;;;;;;;5.22;3.80;;;26.20;99.90;;;;;;6199862;28;89302;-69
2023/08/16 09:13:12;;;;;;;4.10;3.70;;;26.20;99.90;;;;;;6199943;28;88701;-70
2023/08/16 09:16:14;;;;;;;3.97;3.60;;;26.20;99.90;;;;;;6196705;28;89183;-69
2023/08/16 09:19:18;;;;;;;4.82;4.15;;;26.20;99.90;;;;;;6198898;28;89056;-70
2023/08/16 09:22:20;;;;;;;4.35;3.95;;;26.20;99.90;;;;;;6203440;28;90221;-70
2023/08/16 09:25:22;;;;;;;5.82;4.22;;;26.20;99.90;;;;;;6204137;28;90327;-70
2023/08/16 09:28:24;;;;;;;4.72;4.28;;;26.20;99.90;;;;;;6204900;28;89180;-70
2023/08/16 09:31:26;;;;;;;4.97;4.40;;;26.20;99.90;;;;;;6200343;28;88943;-68
2023/08/16 09:34:30;;;;;;;5.10;4.68;;;26.20;99.90;;;;;;6207635;28;88090;-70
2023/08/16 09:37:32;;;;;;;4.75;4.35;;;26.20;99.90;;;;;;6202112;28;89131;-70
2023/08/16 09:40:35;;;;;;;5.65;4.82;;;26.20;99.90;;;;;;6203669;28;89021;-71
2023/08/16 09:43:37;;;;;;;5.57;4.72;;;26.20;99.90;;;;;;6207882;28;88482;-70
2023/08/16 09:46:39;;;;;;;5.30;4.80;;;26.20;99.90;;;;;;6204972;28;89042;-71
2023/08/16 09:49:44;;;;;;;5.68;4.95;;;26.20;99.90;;;;;;6205104;28;89061;-70
2023/08/16 09:52:46;;;;;;;4.70;4.30;;;26.20;99.90;;;;;;6191907;28;90028;-71
2023/08/16 09:55:52;;;;;;;4.70;4.30;;;26.20;99.90;;;;;;6194313;28;89054;-71
2023/08/16 09:58:54;;;;;;;5.00;4.50;;;26.20;99.90;;;;;;6202949;28;89092;-72
2023/08/16 10:01:57;;;;;;;7.10;6.35;;;26.10;99.90;;;;;;6197645;28;89010;-70
2023/08/16 10:05:02;;;;;;;254.88;230.32;;;26.20;99.90;;;;;;6205999;28;89672;-71
2023/08/16 10:08:09;;;;;;;793.75;707.95;;;26.30;99.90;;;;;;6205249;28;88956;-72
2023/08/16 10:11:11;;;;;;;533.92;411.80;;;26.40;99.90;;;;;;6201835;28;89136;-73
2023/08/16 10:14:14;;;;;;;314.50;255.40;;;26.50;99.90;;;;;;6205940;28;88724;-71
2023/08/16 10:17:18;;;;;;;234.07;188.05;;;26.70;99.90;;;;;;6202568;28;89244;-74
2023/08/16 10:20:25;;;;;;;155.95;128.80;;;26.70;99.90;;;;;;6187514;28;89058;-77
2023/08/16 10:23:29;;;;;;;140.55;119.18;;;26.90;99.90;;;;;;6202980;28;89933;-73
2023/08/16 10:26:33;;;;;;;138.60;113.97;;;26.90;99.90;;;;;;6204940;28;89241;-73
2023/08/16 10:29:39;;;;;;;115.28;100.57;;;26.90;99.90;;;;;;6205270;28;89034;-70
2023/08/16 10:32:44;;;;;;;115.55;96.50;;;26.90;99.90;;;;;;6216270;28;89018;-70
2023/08/16 10:35:50;;;;;;;104.15;85.38;;;26.90;99.90;;;;;;6195240;28;89094;-70
2023/08/16 10:38:55;;;;;;;96.22;80.10;;;27.00;99.90;;;;;;6195339;28;89002;-70
2023/08/16 10:42:05;;;;;;;94.18;74.35;;;26.90;99.90;;;;;;6197314;28;87961;-70
2023/08/16 10:45:08;;;;;;;85.05;69.97;;;26.90;99.90;;;;;;6194986;28;88452;-69
2023/08/16 10:48:11;;;;;;;80.47;66.50;;;26.90;99.90;;;;;;6201072;28;89081;-69
2023/08/16 10:51:16;;;;;;;77.88;64.15;;;26.90;99.90;;;;;;6206615;28;88871;-72
2023/08/16 10:54:19;;;;;;;76.90;60.75;;;26.90;99.90;;;;;;6207657;28;90079;-72
2023/08/16 10:57:25;;;;;;;70.63;58.92;;;26.80;99.90;;;;;;6190935;28;88974;-73
2023/08/16 11:00:32;;;;;;;72.43;58.80;;;26.80;99.90;;;;;;6196144;28;88918;-72
2023/08/16 11:03:37;;;;;;;76.45;57.00;;;26.80;99.90;;;;;;6185937;28;89383;-72
2023/08/16 11:06:41;;;;;;;67.95;54.95;;;26.70;99.90;;;;;;6201220;28;89147;-72
2023/08/16 11:09:43;;;;;;;72.43;54.25;;;26.70;99.90;;;;;;6196442;28;89150;-72
2023/08/16 11:12:46;;;;;;;71.70;52.20;;;26.70;99.90;;;;;;6193065;28;89204;-72
2023/08/16 11:15:55;;;;;;;73.53;52.53;;;26.70;99.90;;;;;;6205902;28;88508;-72
2023/08/16 11:19:00;;;;;;;66.28;50.30;;;26.70;99.90;;;;;;6202107;28;89032;-72
2023/08/16 11:22:05;;;;;;;73.03;50.47;;;26.60;99.90;;;;;;6217306;28;89079;-71
2023/08/16 11:25:09;;;;;;;62.45;46.97;;;26.60;99.90;;;;;;6226982;28;90282;-72
2023/08/16 11:28:11;;;;;;;61.92;46.30;;;26.60;99.90;;;;;;6216161;28;89332;-71
2023/08/16 11:31:13;;;;;;;60.63;46.40;;;26.60;99.90;;;;;;6215452;28;89995;-69
2023/08/16 11:34:15;;;;;;;55.47;40.80;;;26.60;99.90;;;;;;6228539;28;89779;-70
2023/08/16 11:37:21;;;;;;;58.75;41.05;;;26.60;99.90;;;;;;6231642;28;89338;-72
2023/08/16 11:40:23;;;;;;;66.78;42.65;;;26.60;99.90;;;;;;6228237;28;89124;-72
2023/08/16 11:43:29;;;;;;;64.10;43.25;;;26.60;99.90;;;;;;6212399;28;88974;-72
2023/08/16 11:46:40;;;;;;;69.35;44.90;;;26.50;99.90;;;;;;6224347;28;88593;-72
2023/08/16 11:49:43;;;;;;;64.35;43.00;;;26.50;99.90;;;;;;6225545;28;89123;-73
2023/08/16 11:52:56;;;;;;;56.92;41.28;;;26.50;99.90;;;;;;6217693;28;89260;-73
2023/08/16 11:55:59;;;;;;;52.58;40.13;;;26.50;99.90;;;;;;6213656;28;89314;-73
2023/08/16 11:59:02;;;;;;;52.63;38.50;;;26.60;99.90;;;;;;6226134;28;89024;-73
2023/08/16 12:02:07;;;;;;;50.97;37.63;;;26.50;99.90;;;;;;6225725;28;89308;-73
2023/08/16 12:05:10;;;;;;;49.67;36.10;;;26.50;99.90;;;;;;6219269;28;89104;-74
2023/08/16 12:08:14;;;;;;;46.45;34.58;;;26.50;99.90;;;;;;6225218;28;89575;-73
2023/08/16 12:11:26;;;;;;;46.25;34.25;;;26.50;99.90;;;;;;6220123;28;88253;-73
2023/08/16 12:14:28;;;;;;;44.25;31.48;;;26.50;99.90;;;;;;6223902;28;89646;-72
2023/08/16 12:17:30;;;;;;;40.70;31.80;;;26.50;99.90;;;;;;6228372;28;88313;-72
2023/08/16 12:20:32;;;;;;;44.30;31.27;;;26.50;99.90;;;;;;6226087;28;88623;-73
2023/08/16 12:23:36;;;;;;;40.85;30.92;;;26.50;99.90;;;;;;6225896;28;89051;-72
2023/08/16 12:26:38;;;;;;;38.40;29.90;;;26.50;99.90;;;;;;6222157;28;90099;-73
2023/08/16 12:29:40;;;;;;;43.72;30.10;;;26.50;99.90;;;;;;6228256;28;89092;-71
2023/08/16 12:32:42;;;;;;;40.80;29.67;;;26.50;99.90;;;;;;6226833;28;89035;-71
2023/08/16 12:35:44;;;;;;;35.60;27.38;;;26.50;99.90;;;;;;6223421;28;89014;-72
2023/08/16 12:38:47;;;;;;;34.17;26.88;;;26.50;99.90;;;;;;6215118;28;91007;-71
2023/08/16 12:41:49;;;;;;;33.97;26.17;;;26.50;99.90;;;;;;6222784;28;89056;-71
2023/08/16 12:44:52;;;;;;;33.40;25.63;;;26.50;99.90;;;;;;6223993;28;89560;-72
2023/08/16 12:47:54;;;;;;;31.13;24.90;;;26.50;99.90;;;;;;6222519;28;88297;-72
2023/08/16 12:50:56;;;;;;;33.00;24.88;;;26.50;99.90;;;;;;6211183;28;89038;-73
2023/08/16 12:53:59;;;;;;;30.08;24.35;;;26.50;99.90;;;;;;6223300;28;89425;-73
2023/08/16 12:57:01;;;;;;;30.70;23.65;;;26.50;99.90;;;;;;6218327;28;90107;-74
2023/08/16 13:00:06;;;;;;;31.75;24.35;;;26.50;99.90;;;;;;6222213;28;89076;-73
2023/08/16 13:03:08;;;;;;;29.27;23.60;;;26.50;99.90;;;;;;6217287;28;89370;-73
2023/08/16 13:06:10;;;;;;;25.75;21.48;;;26.50;99.90;;;;;;6220906;28;89097;-73
2023/08/16 13:09:16;;;;;;;27.08;22.50;;;26.50;99.90;;;;;;6230809;28;90790;-74
2023/08/16 13:12:18;;;;;;;27.83;21.42;;;26.60;99.90;;;;;;6229683;28;89063;-76
2023/08/16 13:15:20;;;;;;;24.42;20.30;;;26.60;99.90;;;;;;6224234;28;89168;-75
2023/08/16 13:18:22;;;;;;;25.73;20.95;;;26.60;99.90;;;;;;6226271;28;88385;-75
2023/08/16 13:21:24;;;;;;;26.42;20.00;;;26.60;99.90;;;;;;6228666;28;88996;-75
2023/08/16 13:24:28;;;;;;;26.58;19.75;;;26.60;99.90;;;;;;6218555;28;89083;-73
2023/08/16 13:27:30;;;;;;;26.27;20.67;;;26.60;99.90;;;;;;6233467;28;90223;-74
2023/08/16 13:30:31;;;;;;;23.05;19.30;;;26.60;99.90;;;;;;6229499;28;88428;-74
2023/08/16 13:33:33;;;;;;;23.30;19.30;;;26.60;99.90;;;;;;6223304;28;89203;-77
2023/08/16 13:36:36;;;;;;;25.27;19.88;;;26.60;99.90;;;;;;6221442;28;89290;-75
2023/08/16 13:39:39;;;;;;;23.67;19.17;;;26.60;99.90;;;;;;6229577;28;89202;-75
2023/08/16 13:42:41;;;;;;;22.40;19.00;;;26.60;99.90;;;;;;6233142;28;88994;-76
2023/08/16 13:45:44;;;;;;;24.58;19.25;;;26.60;99.90;;;;;;6231246;28;89034;-76
2023/08/16 13:48:46;;;;;;;21.10;18.10;;;26.60;99.90;;;;;;6228776;28;88237;-75
2023/08/16 13:51:48;;;;;;;21.83;17.80;;;26.60;99.90;;;;;;6219728;28;89148;-75
2023/08/16 13:54:51;;;;;;;19.52;17.15;;;26.60;99.90;;;;;;6232750;28;89050;-75
2023/08/16 13:57:53;;;;;;;21.48;17.90;;;26.60;99.90;;;;;;6226753;28;89952;-76
2023/08/16 14:00:55;;;;;;;22.05;17.85;;;26.60;99.90;;;;;;6226853;28;89020;-75
2023/08/16 14:03:59;;;;;;;19.25;16.98;;;26.60;99.90;;;;;;6230881;28;88994;-75
2023/08/16 14:07:01;;;;;;;21.00;17.48;;;26.60;99.90;;;;;;6230150;28;89094;-76
2023/08/16 14:10:05;;;;;;;19.05;16.63;;;26.60;99.90;;;;;;6228916;28;89147;-77
2023/08/16 14:13:12;;;;;;;18.20;15.85;;;26.50;99.90;;;;;;6219587;28;88821;-75
2023/08/16 14:16:14;;;;;;;19.42;16.50;;;26.60;99.90;;;;;;6220367;28;89470;-74
2023/08/16 14:19:16;;;;;;;18.90;16.23;;;26.60;99.90;;;;;;6234942;28;88338;-75
2023/08/16 14:22:18;;;;;;;18.50;16.15;;;26.60;99.90;;;;;;6203234;28;90941;-74
2023/08/16 14:25:21;;;;;;;17.98;16.17;;;26.60;99.90;;;;;;6200246;28;89329;-74
2023/08/16 14:28:24;;;;;;;20.23;16.23;;;26.60;99.90;;;;;;6198359;28;89924;-74
2023/08/16 14:31:26;;;;;;;20.17;15.77;;;26.60;99.90;;;;;;6194414;28;89061;-73
2023/08/16 14:34:28;;;;;;;17.52;15.68;;;26.60;99.90;;;;;;6191257;28;89150;-75
2023/08/16 14:37:30;;;;;;;16.98;14.68;;;26.50;99.90;;;;;;6194142;28;89118;-74
2023/08/16 14:40:34;;;;;;;16.90;14.70;;;26.50;99.90;;;;;;6196290;28;89071;-75
2023/08/16 14:43:36;;;;;;;15.50;13.88;;;26.50;99.90;;;;;;6193423;28;89143;-76
2023/08/16 14:46:38;;;;;;;16.30;14.48;;;26.50;99.90;;;;;;6207022;28;89143;-75
2023/08/16 14:49:40;;;;;;;18.10;14.20;;;26.60;99.90;;;;;;6207427;28;88608;-75
2023/08/16 14:52:42;;;;;;;15.07;13.32;;;26.50;99.90;;;;;;6206735;28;89047;-74
2023/08/16 14:55:45;;;;;;;15.02;13.43;;;26.60;99.90;;;;;;6205995;28;89071;-75
2023/08/16 14:58:47;;;;;;;15.35;13.68;;;26.60;99.90;;;;;;6193132;28;90107;-75
2023/08/16 15:01:49;;;;;;;16.23;13.13;;;26.50;99.90;;;;;;6200772;28;89112;-74
2023/08/16 15:04:51;;;;;;;16.58;13.48;;;26.50;99.90;;;;;;6192923;28;88459;-75
2023/08/16 15:07:53;;;;;;;14.60;13.05;;;26.60;99.90;;;;;;6205420;28;89522;-75
2023/08/16 15:11:01;;;;;;;14.23;12.73;;;26.60;99.90;;;;;;6199049;28;89171;-75
2023/08/16 15:14:04;;;;;;;14.80;13.20;;;26.60;99.90;;;;;;6191411;28;90311;-75
2023/08/16 15:17:07;;;;;;;14.10;12.60;;;26.50;99.90;;;;;;6205415;28;88675;-75
2023/08/16 15:20:11;;;;;;;14.13;12.73;;;26.50;99.90;;;;;;6197554;28;88326;-75
2023/08/16 15:23:13;;;;;;;13.90;12.38;;;26.60;99.90;;;;;;6203242;28;88933;-74
2023/08/16 15:26:16;;;;;;;13.82;12.43;;;26.50;99.90;;;;;;6205211;28;89192;-74
2023/08/16 15:29:21;;;;;;;13.43;12.02;;;26.50;99.90;;;;;;6194447;28;90010;-74
2023/08/16 15:32:23;;;;;;;13.05;11.75;;;26.50;99.90;;;;;;6207158;28;89200;-74
2023/08/16 15:35:25;;;;;;;13.77;12.20;;;26.50;99.90;;;;;;6204003;28;89044;-74
2023/08/16 15:38:42;;;;;;;13.45;11.60;;;26.50;99.90;;;;;;6197568;28;87924;-74
2023/08/16 15:41:46;;;;;;;12.73;11.48;;;26.50;99.90;;;;;;6203951;28;89172;-75